X  Fechar Dados meteorológicos de METAR da aviação     EDTY Adolf Würth Airport
Temperatura
11°C Temperatura
9°C Ponto de orvalho
88% Umidade



Vento
3 KM/H
2 MPH
1 M/S
2 NÓS



Calmo
N
Condições atuais

Nuvens esparsas Nuvens esparsas
Pressão 1011.85 (hPa) - 29.88 (inHg)
Visibilidade 6 (milha) - 9.7 (km)
Aeroporto
Código do aeroporto EDTY

Localização: Adolf Würth Airport
Distância: 59 (km)

Metar:
EDTY 190350Z AUTO VRB02KT 9999 // SCT040/// BKN052/// BKN077/// 11/09 Q1012

Hora: 19-05-2024 05:50 CEST